This is the latest recevied weather packets stored in our database for station/object KO4FR. If no packets are shown the sender has not sent any weather packets the latest 10 day(s).
| Time | Temp. | Humidity | Pressure | Rain* | Wind** | Luminosity | Snow |
|---|---|---|---|---|---|---|---|
| 1777674592 | 18.33° C | 46% | 1012.2 hPa | 0 mm | - | - | - |
| 1777674293 | 18.33° C | 47% | 1012.1 hPa | 0 mm | - | - | - |
| 1777673992 | 17.78° C | 48% | 1012.2 hPa | 0 mm | - | - | - |
| 1777673691 | 17.78° C | 47% | 1012.2 hPa | 0 mm | - | - | - |
| 1777673391 | 17.78° C | 46% | 1012.3 hPa | 0 mm | - | - | - |
| 1777673091 | 17.78° C | 46% | 1012.4 hPa | 0 mm | - | - | - |
| 1777672791 | 18.33° C | 44% | 1012.3 hPa | 0 mm | - | - | - |
| 1777672491 | 18.33° C | 44% | 1012.3 hPa | 0 mm | - | - | - |
| 1777672191 | 18.33° C | 45% | 1012.4 hPa | 0 mm | - | - | - |
| 1777671891 | 18.33° C | 45% | 1012.5 hPa | 0 mm | - | - | - |
| 1777671591 | 18.33° C | 44% | 1012.5 hPa | 0 mm | - | - | - |
| 1777671291 | 18.33° C | 43% | 1012.5 hPa | 0 mm | - | - | - |
| 1777670991 | 18.33° C | 42% | 1012.5 hPa | 0 mm | - | - | - |
| 1777670691 | 18.33° C | 41% | 1012.4 hPa | 0 mm | - | - | - |
| 1777670391 | 18.89° C | 40% | 1012.4 hPa | 0 mm | - | - | - |
| 1777670091 | 18.89° C | 37% | 1012.3 hPa | 0 mm | - | - | - |
| 1777669791 | 18.89° C | 37% | 1012.4 hPa | 0 mm | - | - | - |
| 1777669491 | 19.44° C | 37% | 1012.4 hPa | 0 mm | - | - | - |
| 1777669191 | 18.89° C | 39% | 1012.4 hPa | 0 mm | - | - | - |
| 1777668891 | 19.44° C | 36% | 1012.4 hPa | 0 mm | - | - | - |
| 1777668591 | 19.44° C | 37% | 1012.5 hPa | 0 mm | - | - | - |
| 1777668291 | 18.89° C | 39% | 1012.4 hPa | 0 mm | - | - | - |
| 1777667991 | 18.89° C | 41% | 1012.5 hPa | 0 mm | - | - | - |
| 1777667691 | 19.44° C | 41% | 1012.6 hPa | 0 mm | - | - | - |
| 1777667391 | 19.44° C | 41% | 1012.5 hPa | 0 mm | - | - | - |
* Rain latest hour (hover to see other rain measurements)
** Current wind speed in m/s (hover to see current wind gust speed)